sensor_id;sensor_type;location;lat;lon;timestamp;P1;durP1;ratioP1;P2;durP2;ratioP2
15876;SDS011;8037;51.666;7.834;2023-07-31T00:00:52;1.20;;;0.97;;
15876;SDS011;8037;51.666;7.834;2023-07-31T00:03:18;1.10;;;1.07;;
15876;SDS011;8037;51.666;7.834;2023-07-31T00:05:44;1.00;;;1.00;;
15876;SDS011;8037;51.666;7.834;2023-07-31T00:08:10;2.47;;;1.20;;
15876;SDS011;8037;51.666;7.834;2023-07-31T00:10:36;1.00;;;0.90;;
15876;SDS011;8037;51.666;7.834;2023-07-31T00:13:02;1.83;;;1.27;;
15876;SDS011;8037;51.666;7.834;2023-07-31T00:15:27;1.33;;;0.90;;
15876;SDS011;8037;51.666;7.834;2023-07-31T00:17:53;0.73;;;0.73;;
15876;SDS011;8037;51.666;7.834;2023-07-31T00:20:19;1.17;;;1.07;;
15876;SDS011;8037;51.666;7.834;2023-07-31T00:22:45;0.70;;;0.70;;
15876;SDS011;8037;51.666;7.834;2023-07-31T00:25:11;2.53;;;0.80;;
15876;SDS011;8037;51.666;7.834;2023-07-31T00:27:37;0.60;;;0.60;;
15876;SDS011;8037;51.666;7.834;2023-07-31T00:30:06;0.60;;;0.60;;
15876;SDS011;8037;51.666;7.834;2023-07-31T00:32:32;0.70;;;0.60;;
15876;SDS011;8037;51.666;7.834;2023-07-31T00:34:58;1.17;;;0.93;;
15876;SDS011;8037;51.666;7.834;2023-07-31T00:37:24;1.10;;;1.00;;
15876;SDS011;8037;51.666;7.834;2023-07-31T00:39:50;3.30;;;1.07;;
15876;SDS011;8037;51.666;7.834;2023-07-31T00:42:16;0.77;;;0.40;;
15876;SDS011;8037;51.666;7.834;2023-07-31T00:44:42;1.00;;;1.00;;
15876;SDS011;8037;51.666;7.834;2023-07-31T00:47:08;0.90;;;0.90;;
15876;SDS011;8037;51.666;7.834;2023-07-31T00:49:36;0.73;;;0.73;;
15876;SDS011;8037;51.666;7.834;2023-07-31T00:52:03;1.83;;;0.80;;
15876;SDS011;8037;51.666;7.834;2023-07-31T00:54:29;1.00;;;1.00;;
15876;SDS011;8037;51.666;7.834;2023-07-31T00:56:54;1.90;;;1.03;;
15876;SDS011;8037;51.666;7.834;2023-07-31T00:59:20;1.90;;;0.80;;
15876;SDS011;8037;51.666;7.834;2023-07-31T01:01:46;0.70;;;0.70;;
15876;SDS011;8037;51.666;7.834;2023-07-31T01:04:12;0.80;;;0.80;;
15876;SDS011;8037;51.666;7.834;2023-07-31T01:09:11;2.63;;;1.13;;
15876;SDS011;8037;51.666;7.834;2023-07-31T01:11:56;1.03;;;1.03;;
15876;SDS011;8037;51.666;7.834;2023-07-31T01:14:27;1.00;;;1.00;;
15876;SDS011;8037;51.666;7.834;2023-07-31T01:16:53;1.57;;;0.80;;
15876;SDS011;8037;51.666;7.834;2023-07-31T01:19:20;2.50;;;1.10;;
15876;SDS011;8037;51.666;7.834;2023-07-31T01:26:42;1.23;;;0.93;;
15876;SDS011;8037;51.666;7.834;2023-07-31T01:31:44;1.43;;;1.33;;
15876;SDS011;8037;51.666;7.834;2023-07-31T01:34:13;1.47;;;1.37;;
15876;SDS011;8037;51.666;7.834;2023-07-31T01:36:40;1.30;;;1.20;;
15876;SDS011;8037;51.666;7.834;2023-07-31T01:39:06;1.67;;;1.50;;
15876;SDS011;8037;51.666;7.834;2023-07-31T01:41:32;1.50;;;1.40;;
15876;SDS011;8037;51.666;7.834;2023-07-31T01:43:58;2.60;;;1.40;;
15876;SDS011;8037;51.666;7.834;2023-07-31T01:46:24;3.40;;;2.23;;
15876;SDS011;8037;51.666;7.834;2023-07-31T01:48:50;2.40;;;2.10;;
15876;SDS011;8037;51.666;7.834;2023-07-31T01:51:16;3.00;;;2.63;;
15876;SDS011;8037;51.666;7.834;2023-07-31T01:53:42;5.73;;;2.60;;
15876;SDS011;8037;51.666;7.834;2023-07-31T01:56:08;3.00;;;2.47;;
15876;SDS011;8037;51.666;7.834;2023-07-31T01:58:34;3.37;;;2.43;;
15876;SDS011;8037;51.666;7.834;2023-07-31T02:01:00;3.30;;;2.70;;
15876;SDS011;8037;51.666;7.834;2023-07-31T02:03:26;3.23;;;2.70;;
15876;SDS011;8037;51.666;7.834;2023-07-31T02:05:53;10.30;;;3.20;;
15876;SDS011;8037;51.666;7.834;2023-07-31T02:08:19;6.33;;;2.97;;
15876;SDS011;8037;51.666;7.834;2023-07-31T02:10:45;3.27;;;2.20;;
15876;SDS011;8037;51.666;7.834;2023-07-31T02:13:12;4.33;;;2.50;;
15876;SDS011;8037;51.666;7.834;2023-07-31T02:15:38;6.43;;;4.30;;
15876;SDS011;8037;51.666;7.834;2023-07-31T02:18:04;3.77;;;2.80;;
15876;SDS011;8037;51.666;7.834;2023-07-31T02:20:32;3.40;;;2.63;;
15876;SDS011;8037;51.666;7.834;2023-07-31T02:22:58;6.03;;;3.30;;
15876;SDS011;8037;51.666;7.834;2023-07-31T02:25:24;5.33;;;2.30;;
15876;SDS011;8037;51.666;7.834;2023-07-31T02:27:50;2.97;;;2.57;;
15876;SDS011;8037;51.666;7.834;2023-07-31T02:30:16;4.43;;;2.67;;
15876;SDS011;8037;51.666;7.834;2023-07-31T02:32:42;5.07;;;2.80;;
15876;SDS011;8037;51.666;7.834;2023-07-31T02:35:08;5.33;;;2.90;;
15876;SDS011;8037;51.666;7.834;2023-07-31T02:37:36;5.97;;;2.57;;
15876;SDS011;8037;51.666;7.834;2023-07-31T02:40:03;6.03;;;2.63;;
15876;SDS011;8037;51.666;7.834;2023-07-31T02:42:29;7.83;;;2.70;;
15876;SDS011;8037;51.666;7.834;2023-07-31T02:44:54;5.33;;;2.50;;
15876;SDS011;8037;51.666;7.834;2023-07-31T02:47:21;4.63;;;2.43;;
15876;SDS011;8037;51.666;7.834;2023-07-31T02:49:47;3.93;;;2.30;;
15876;SDS011;8037;51.666;7.834;2023-07-31T02:52:13;5.00;;;2.07;;
15876;SDS011;8037;51.666;7.834;2023-07-31T02:54:39;3.53;;;2.47;;
15876;SDS011;8037;51.666;7.834;2023-07-31T02:57:05;4.40;;;3.13;;
15876;SDS011;8037;51.666;7.834;2023-07-31T02:59:34;5.93;;;2.23;;
15876;SDS011;8037;51.666;7.834;2023-07-31T03:02:00;2.33;;;2.13;;
15876;SDS011;8037;51.666;7.834;2023-07-31T03:04:25;3.80;;;2.93;;
15876;SDS011;8037;51.666;7.834;2023-07-31T03:06:51;10.13;;;3.07;;
15876;SDS011;8037;51.666;7.834;2023-07-31T03:09:17;6.67;;;2.73;;
15876;SDS011;8037;51.666;7.834;2023-07-31T03:11:42;2.80;;;1.93;;
15876;SDS011;8037;51.666;7.834;2023-07-31T03:14:08;6.00;;;2.33;;
15876;SDS011;8037;51.666;7.834;2023-07-31T03:16:34;8.00;;;2.70;;
15876;SDS011;8037;51.666;7.834;2023-07-31T03:19:00;2.87;;;2.67;;
15876;SDS011;8037;51.666;7.834;2023-07-31T03:21:25;3.80;;;2.47;;
15876;SDS011;8037;51.666;7.834;2023-07-31T03:23:51;5.43;;;2.67;;
15876;SDS011;8037;51.666;7.834;2023-07-31T03:26:17;8.20;;;3.10;;
15876;SDS011;8037;51.666;7.834;2023-07-31T03:28:43;2.57;;;2.07;;
15876;SDS011;8037;51.666;7.834;2023-07-31T03:31:09;3.43;;;1.50;;
15876;SDS011;8037;51.666;7.834;2023-07-31T03:33:36;9.37;;;2.30;;
15876;SDS011;8037;51.666;7.834;2023-07-31T03:36:02;5.90;;;2.60;;
15876;SDS011;8037;51.666;7.834;2023-07-31T03:38:28;3.67;;;2.43;;
15876;SDS011;8037;51.666;7.834;2023-07-31T03:40:54;4.03;;;2.50;;
15876;SDS011;8037;51.666;7.834;2023-07-31T03:43:20;3.70;;;2.23;;
15876;SDS011;8037;51.666;7.834;2023-07-31T03:45:46;5.43;;;2.10;;
15876;SDS011;8037;51.666;7.834;2023-07-31T03:48:13;4.80;;;2.53;;
15876;SDS011;8037;51.666;7.834;2023-07-31T03:50:39;4.87;;;2.20;;
15876;SDS011;8037;51.666;7.834;2023-07-31T03:53:05;9.23;;;2.60;;
15876;SDS011;8037;51.666;7.834;2023-07-31T03:55:31;3.57;;;2.30;;
15876;SDS011;8037;51.666;7.834;2023-07-31T03:57:57;3.23;;;2.20;;
15876;SDS011;8037;51.666;7.834;2023-07-31T04:00:25;8.50;;;2.47;;
15876;SDS011;8037;51.666;7.834;2023-07-31T04:02:52;7.53;;;2.27;;
15876;SDS011;8037;51.666;7.834;2023-07-31T04:05:18;8.73;;;2.37;;
15876;SDS011;8037;51.666;7.834;2023-07-31T04:07:44;7.23;;;2.10;;
15876;SDS011;8037;51.666;7.834;2023-07-31T04:10:10;6.70;;;2.00;;
15876;SDS011;8037;51.666;7.834;2023-07-31T04:12:36;2.23;;;2.13;;
15876;SDS011;8037;51.666;7.834;2023-07-31T04:15:02;6.33;;;2.50;;
15876;SDS011;8037;51.666;7.834;2023-07-31T04:17:28;4.63;;;2.20;;
15876;SDS011;8037;51.666;7.834;2023-07-31T04:19:54;9.20;;;2.67;;
15876;SDS011;8037;51.666;7.834;2023-07-31T04:22:20;7.93;;;2.27;;
15876;SDS011;8037;51.666;7.834;2023-07-31T04:24:45;4.80;;;2.57;;
15876;SDS011;8037;51.666;7.834;2023-07-31T04:27:11;2.97;;;2.33;;
15876;SDS011;8037;51.666;7.834;2023-07-31T04:29:37;6.13;;;2.70;;
15876;SDS011;8037;51.666;7.834;2023-07-31T04:32:05;2.83;;;2.30;;
15876;SDS011;8037;51.666;7.834;2023-07-31T04:34:30;15.07;;;2.10;;
15876;SDS011;8037;51.666;7.834;2023-07-31T04:36:56;3.43;;;2.03;;
15876;SDS011;8037;51.666;7.834;2023-07-31T04:39:23;3.57;;;2.60;;
15876;SDS011;8037;51.666;7.834;2023-07-31T04:41:49;14.73;;;2.50;;
15876;SDS011;8037;51.666;7.834;2023-07-31T04:44:15;20.27;;;3.00;;
15876;SDS011;8037;51.666;7.834;2023-07-31T04:46:41;7.37;;;2.60;;
15876;SDS011;8037;51.666;7.834;2023-07-31T04:49:07;6.50;;;2.07;;
15876;SDS011;8037;51.666;7.834;2023-07-31T04:51:33;9.10;;;2.43;;
15876;SDS011;8037;51.666;7.834;2023-07-31T04:53:59;16.17;;;3.47;;
15876;SDS011;8037;51.666;7.834;2023-07-31T04:56:25;15.47;;;3.40;;
15876;SDS011;8037;51.666;7.834;2023-07-31T04:58:51;6.50;;;2.40;;
15876;SDS011;8037;51.666;7.834;2023-07-31T05:01:17;5.63;;;2.17;;
15876;SDS011;8037;51.666;7.834;2023-07-31T05:03:42;3.37;;;1.77;;
15876;SDS011;8037;51.666;7.834;2023-07-31T05:06:08;5.07;;;2.03;;
15876;SDS011;8037;51.666;7.834;2023-07-31T05:08:34;5.70;;;2.93;;
15876;SDS011;8037;51.666;7.834;2023-07-31T05:11:00;7.70;;;2.00;;
15876;SDS011;8037;51.666;7.834;2023-07-31T05:13:26;5.77;;;2.97;;
15876;SDS011;8037;51.666;7.834;2023-07-31T05:15:52;5.47;;;2.57;;
15876;SDS011;8037;51.666;7.834;2023-07-31T05:18:18;4.20;;;2.30;;
15876;SDS011;8037;51.666;7.834;2023-07-31T05:20:45;3.60;;;2.43;;
15876;SDS011;8037;51.666;7.834;2023-07-31T05:23:11;4.10;;;2.20;;
15876;SDS011;8037;51.666;7.834;2023-07-31T05:25:37;6.90;;;1.93;;
15876;SDS011;8037;51.666;7.834;2023-07-31T05:28:05;6.23;;;2.10;;
15876;SDS011;8037;51.666;7.834;2023-07-31T05:30:31;11.50;;;2.73;;
15876;SDS011;8037;51.666;7.834;2023-07-31T05:32:57;5.27;;;1.90;;
15876;SDS011;8037;51.666;7.834;2023-07-31T05:35:23;3.37;;;2.17;;
15876;SDS011;8037;51.666;7.834;2023-07-31T05:37:48;9.00;;;2.80;;
15876;SDS011;8037;51.666;7.834;2023-07-31T05:40:14;6.00;;;2.60;;
15876;SDS011;8037;51.666;7.834;2023-07-31T05:42:40;8.60;;;2.53;;
15876;SDS011;8037;51.666;7.834;2023-07-31T05:45:07;7.27;;;2.43;;
15876;SDS011;8037;51.666;7.834;2023-07-31T05:47:33;10.50;;;2.63;;
15876;SDS011;8037;51.666;7.834;2023-07-31T05:49:59;3.40;;;2.67;;
15876;SDS011;8037;51.666;7.834;2023-07-31T05:52:25;2.00;;;1.90;;
15876;SDS011;8037;51.666;7.834;2023-07-31T05:54:51;7.60;;;2.70;;
15876;SDS011;8037;51.666;7.834;2023-07-31T05:57:17;5.23;;;2.13;;
15876;SDS011;8037;51.666;7.834;2023-07-31T05:59:43;4.83;;;2.17;;
15876;SDS011;8037;51.666;7.834;2023-07-31T06:02:09;9.73;;;2.53;;
15876;SDS011;8037;51.666;7.834;2023-07-31T06:04:34;5.13;;;2.10;;
15876;SDS011;8037;51.666;7.834;2023-07-31T06:07:00;13.27;;;3.83;;
15876;SDS011;8037;51.666;7.834;2023-07-31T06:09:26;5.37;;;3.27;;
15876;SDS011;8037;51.666;7.834;2023-07-31T06:11:52;4.27;;;2.80;;
15876;SDS011;8037;51.666;7.834;2023-07-31T06:14:18;7.57;;;1.90;;
15876;SDS011;8037;51.666;7.834;2023-07-31T06:16:44;3.63;;;2.20;;
15876;SDS011;8037;51.666;7.834;2023-07-31T06:19:10;19.43;;;1.77;;
15876;SDS011;8037;51.666;7.834;2023-07-31T06:21:36;6.23;;;2.30;;
15876;SDS011;8037;51.666;7.834;2023-07-31T06:24:03;2.63;;;1.83;;
15876;SDS011;8037;51.666;7.834;2023-07-31T06:26:29;4.93;;;2.07;;
15876;SDS011;8037;51.666;7.834;2023-07-31T06:28:55;5.20;;;2.00;;
15876;SDS011;8037;51.666;7.834;2023-07-31T06:31:21;2.27;;;1.60;;
15876;SDS011;8037;51.666;7.834;2023-07-31T06:33:51;7.10;;;2.33;;
15876;SDS011;8037;51.666;7.834;2023-07-31T06:36:17;3.37;;;3.07;;
15876;SDS011;8037;51.666;7.834;2023-07-31T06:38:43;3.63;;;2.10;;
15876;SDS011;8037;51.666;7.834;2023-07-31T06:41:09;7.47;;;2.90;;
15876;SDS011;8037;51.666;7.834;2023-07-31T06:43:35;3.97;;;2.87;;
15876;SDS011;8037;51.666;7.834;2023-07-31T06:46:08;2.50;;;2.30;;
15876;SDS011;8037;51.666;7.834;2023-07-31T06:48:35;10.53;;;2.53;;
15876;SDS011;8037;51.666;7.834;2023-07-31T06:51:02;3.30;;;1.87;;
15876;SDS011;8037;51.666;7.834;2023-07-31T06:53:28;3.83;;;2.20;;
15876;SDS011;8037;51.666;7.834;2023-07-31T06:55:54;5.23;;;1.90;;
15876;SDS011;8037;51.666;7.834;2023-07-31T06:58:20;2.60;;;2.03;;
15876;SDS011;8037;51.666;7.834;2023-07-31T07:00:46;5.50;;;2.60;;
15876;SDS011;8037;51.666;7.834;2023-07-31T07:03:14;3.00;;;2.10;;
15876;SDS011;8037;51.666;7.834;2023-07-31T07:05:40;2.77;;;1.80;;
15876;SDS011;8037;51.666;7.834;2023-07-31T07:08:06;4.57;;;2.60;;
15876;SDS011;8037;51.666;7.834;2023-07-31T07:10:32;4.40;;;2.70;;
15876;SDS011;8037;51.666;7.834;2023-07-31T07:12:58;2.47;;;2.10;;
15876;SDS011;8037;51.666;7.834;2023-07-31T07:15:24;6.40;;;2.40;;
15876;SDS011;8037;51.666;7.834;2023-07-31T07:17:50;3.67;;;2.60;;
15876;SDS011;8037;51.666;7.834;2023-07-31T07:20:16;7.10;;;3.20;;
15876;SDS011;8037;51.666;7.834;2023-07-31T07:22:44;4.47;;;2.70;;
15876;SDS011;8037;51.666;7.834;2023-07-31T07:25:09;5.47;;;2.87;;
15876;SDS011;8037;51.666;7.834;2023-07-31T07:27:35;6.47;;;3.37;;
15876;SDS011;8037;51.666;7.834;2023-07-31T07:30:01;8.70;;;3.43;;
15876;SDS011;8037;51.666;7.834;2023-07-31T07:32:27;5.03;;;2.57;;
15876;SDS011;8037;51.666;7.834;2023-07-31T07:34:53;4.03;;;2.50;;
15876;SDS011;8037;51.666;7.834;2023-07-31T07:37:19;7.30;;;2.40;;
15876;SDS011;8037;51.666;7.834;2023-07-31T07:39:45;1.97;;;1.83;;
15876;SDS011;8037;51.666;7.834;2023-07-31T07:42:11;3.03;;;2.30;;
15876;SDS011;8037;51.666;7.834;2023-07-31T07:44:36;2.20;;;2.10;;
15876;SDS011;8037;51.666;7.834;2023-07-31T07:47:02;2.43;;;2.23;;
15876;SDS011;8037;51.666;7.834;2023-07-31T07:49:30;6.30;;;3.00;;
15876;SDS011;8037;51.666;7.834;2023-07-31T07:51:56;5.63;;;2.83;;
15876;SDS011;8037;51.666;7.834;2023-07-31T07:54:22;6.27;;;2.20;;
15876;SDS011;8037;51.666;7.834;2023-07-31T07:56:48;5.50;;;2.47;;
15876;SDS011;8037;51.666;7.834;2023-07-31T07:59:14;4.70;;;2.03;;
15876;SDS011;8037;51.666;7.834;2023-07-31T08:01:40;4.33;;;2.50;;
15876;SDS011;8037;51.666;7.834;2023-07-31T08:04:06;19.33;;;2.67;;
15876;SDS011;8037;51.666;7.834;2023-07-31T08:06:32;3.30;;;1.67;;
15876;SDS011;8037;51.666;7.834;2023-07-31T08:08:58;2.47;;;2.27;;
15876;SDS011;8037;51.666;7.834;2023-07-31T08:11:30;2.63;;;2.43;;
15876;SDS011;8037;51.666;7.834;2023-07-31T08:13:56;8.33;;;1.47;;
15876;SDS011;8037;51.666;7.834;2023-07-31T08:16:22;6.50;;;1.80;;
15876;SDS011;8037;51.666;7.834;2023-07-31T08:18:47;2.70;;;2.23;;
15876;SDS011;8037;51.666;7.834;2023-07-31T08:21:13;5.23;;;2.40;;
15876;SDS011;8037;51.666;7.834;2023-07-31T08:23:40;4.33;;;1.87;;
15876;SDS011;8037;51.666;7.834;2023-07-31T08:26:06;1.80;;;1.70;;
15876;SDS011;8037;51.666;7.834;2023-07-31T08:28:32;2.30;;;1.80;;
15876;SDS011;8037;51.666;7.834;2023-07-31T08:30:58;2.00;;;1.80;;
15876;SDS011;8037;51.666;7.834;2023-07-31T08:33:24;3.33;;;2.07;;
15876;SDS011;8037;51.666;7.834;2023-07-31T08:35:49;2.00;;;1.90;;
15876;SDS011;8037;51.666;7.834;2023-07-31T08:38:15;3.87;;;2.60;;
15876;SDS011;8037;51.666;7.834;2023-07-31T08:40:41;2.73;;;2.50;;
15876;SDS011;8037;51.666;7.834;2023-07-31T08:43:08;7.77;;;2.57;;
15876;SDS011;8037;51.666;7.834;2023-07-31T08:45:34;2.17;;;1.70;;
15876;SDS011;8037;51.666;7.834;2023-07-31T08:48:00;2.20;;;1.53;;
15876;SDS011;8037;51.666;7.834;2023-07-31T08:50:26;1.47;;;1.37;;
15876;SDS011;8037;51.666;7.834;2023-07-31T08:52:53;1.60;;;1.50;;
15876;SDS011;8037;51.666;7.834;2023-07-31T08:55:19;2.03;;;1.80;;
15876;SDS011;8037;51.666;7.834;2023-07-31T08:57:50;2.17;;;1.73;;
15876;SDS011;8037;51.666;7.834;2023-07-31T09:00:17;4.60;;;1.73;;
15876;SDS011;8037;51.666;7.834;2023-07-31T09:05:11;2.40;;;1.80;;
15876;SDS011;8037;51.666;7.834;2023-07-31T09:07:37;2.80;;;1.60;;
15876;SDS011;8037;51.666;7.834;2023-07-31T09:10:04;3.20;;;1.97;;
15876;SDS011;8037;51.666;7.834;2023-07-31T09:12:30;3.93;;;2.00;;
15876;SDS011;8037;51.666;7.834;2023-07-31T09:14:57;2.53;;;2.33;;
15876;SDS011;8037;51.666;7.834;2023-07-31T09:17:30;2.30;;;1.50;;
15876;SDS011;8037;51.666;7.834;2023-07-31T09:19:56;4.07;;;2.23;;
15876;SDS011;8037;51.666;7.834;2023-07-31T09:22:34;5.30;;;1.70;;
15876;SDS011;8037;51.666;7.834;2023-07-31T09:27:55;7.50;;;1.97;;
15876;SDS011;8037;51.666;7.834;2023-07-31T09:30:21;2.63;;;2.43;;
15876;SDS011;8037;51.666;7.834;2023-07-31T09:32:48;3.03;;;1.93;;
15876;SDS011;8037;51.666;7.834;2023-07-31T09:35:21;3.00;;;1.40;;
15876;SDS011;8037;51.666;7.834;2023-07-31T09:37:48;3.90;;;1.67;;
15876;SDS011;8037;51.666;7.834;2023-07-31T09:40:24;1.73;;;1.47;;
15876;SDS011;8037;51.666;7.834;2023-07-31T09:42:51;5.43;;;1.40;;
15876;SDS011;8037;51.666;7.834;2023-07-31T09:45:17;2.00;;;1.00;;
15876;SDS011;8037;51.666;7.834;2023-07-31T09:47:47;4.10;;;1.70;;
15876;SDS011;8037;51.666;7.834;2023-07-31T09:50:14;3.03;;;1.53;;
15876;SDS011;8037;51.666;7.834;2023-07-31T09:52:41;1.20;;;1.10;;
15876;SDS011;8037;51.666;7.834;2023-07-31T09:55:07;1.03;;;0.97;;
15876;SDS011;8037;51.666;7.834;2023-07-31T09:57:33;1.63;;;0.83;;
15876;SDS011;8037;51.666;7.834;2023-07-31T10:00:00;1.73;;;0.97;;
15876;SDS011;8037;51.666;7.834;2023-07-31T10:02:26;7.30;;;0.93;;
15876;SDS011;8037;51.666;7.834;2023-07-31T10:04:52;2.70;;;1.27;;
15876;SDS011;8037;51.666;7.834;2023-07-31T10:07:25;1.63;;;1.20;;
15876;SDS011;8037;51.666;7.834;2023-07-31T10:09:53;1.13;;;1.13;;
15876;SDS011;8037;51.666;7.834;2023-07-31T10:12:20;1.87;;;1.40;;
15876;SDS011;8037;51.666;7.834;2023-07-31T10:14:47;1.17;;;1.17;;
15876;SDS011;8037;51.666;7.834;2023-07-31T10:17:13;0.93;;;0.83;;
15876;SDS011;8037;51.666;7.834;2023-07-31T10:19:39;9.93;;;1.60;;
15876;SDS011;8037;51.666;7.834;2023-07-31T10:22:06;1.70;;;1.60;;
15876;SDS011;8037;51.666;7.834;2023-07-31T10:24:32;2.10;;;1.70;;
15876;SDS011;8037;51.666;7.834;2023-07-31T10:27:00;1.13;;;1.03;;
15876;SDS011;8037;51.666;7.834;2023-07-31T10:29:28;1.33;;;1.20;;
15876;SDS011;8037;51.666;7.834;2023-07-31T10:31:55;1.27;;;0.80;;
15876;SDS011;8037;51.666;7.834;2023-07-31T10:34:23;1.87;;;1.57;;
15876;SDS011;8037;51.666;7.834;2023-07-31T10:36:49;1.40;;;1.33;;
15876;SDS011;8037;51.666;7.834;2023-07-31T10:39:33;2.40;;;1.43;;
15876;SDS011;8037;51.666;7.834;2023-07-31T10:42:09;0.90;;;0.80;;
15876;SDS011;8037;51.666;7.834;2023-07-31T10:44:35;1.70;;;1.33;;
15876;SDS011;8037;51.666;7.834;2023-07-31T10:47:01;1.07;;;0.90;;
15876;SDS011;8037;51.666;7.834;2023-07-31T10:49:27;1.10;;;1.10;;
15876;SDS011;8037;51.666;7.834;2023-07-31T10:51:57;1.23;;;1.00;;
15876;SDS011;8037;51.666;7.834;2023-07-31T10:54:22;1.67;;;1.30;;
15876;SDS011;8037;51.666;7.834;2023-07-31T10:56:51;2.60;;;1.30;;
15876;SDS011;8037;51.666;7.834;2023-07-31T10:59:18;1.70;;;1.60;;
15876;SDS011;8037;51.666;7.834;2023-07-31T11:01:55;2.00;;;1.03;;
15876;SDS011;8037;51.666;7.834;2023-07-31T11:04:27;1.27;;;1.10;;
15876;SDS011;8037;51.666;7.834;2023-07-31T11:06:59;1.40;;;0.77;;
15876;SDS011;8037;51.666;7.834;2023-07-31T11:09:30;2.43;;;1.30;;
15876;SDS011;8037;51.666;7.834;2023-07-31T11:11:57;1.73;;;1.10;;
15876;SDS011;8037;51.666;7.834;2023-07-31T11:14:23;0.83;;;0.83;;
15876;SDS011;8037;51.666;7.834;2023-07-31T11:16:50;1.40;;;1.30;;
15876;SDS011;8037;51.666;7.834;2023-07-31T11:19:23;0.93;;;0.83;;
15876;SDS011;8037;51.666;7.834;2023-07-31T11:21:49;0.77;;;0.77;;
15876;SDS011;8037;51.666;7.834;2023-07-31T11:24:15;3.70;;;0.60;;
15876;SDS011;8037;51.666;7.834;2023-07-31T11:26:50;0.83;;;0.83;;
15876;SDS011;8037;51.666;7.834;2023-07-31T11:29:17;1.43;;;0.97;;
15876;SDS011;8037;51.666;7.834;2023-07-31T11:31:43;0.87;;;0.70;;
15876;SDS011;8037;51.666;7.834;2023-07-31T11:34:09;1.20;;;1.03;;
15876;SDS011;8037;51.666;7.834;2023-07-31T11:36:35;1.13;;;0.70;;
15876;SDS011;8037;51.666;7.834;2023-07-31T11:39:08;1.20;;;1.00;;
15876;SDS011;8037;51.666;7.834;2023-07-31T11:41:34;0.67;;;0.67;;
15876;SDS011;8037;51.666;7.834;2023-07-31T11:44:00;0.60;;;0.60;;
15876;SDS011;8037;51.666;7.834;2023-07-31T11:46:27;1.00;;;0.80;;
15876;SDS011;8037;51.666;7.834;2023-07-31T11:48:59;0.80;;;0.70;;
15876;SDS011;8037;51.666;7.834;2023-07-31T11:51:25;0.70;;;0.70;;
15876;SDS011;8037;51.666;7.834;2023-07-31T11:53:55;1.67;;;0.70;;
15876;SDS011;8037;51.666;7.834;2023-07-31T11:56:21;0.87;;;0.60;;
15876;SDS011;8037;51.666;7.834;2023-07-31T11:58:49;1.63;;;1.00;;
15876;SDS011;8037;51.666;7.834;2023-07-31T12:01:16;1.33;;;0.97;;
15876;SDS011;8037;51.666;7.834;2023-07-31T12:03:43;3.33;;;1.10;;
15876;SDS011;8037;51.666;7.834;2023-07-31T12:06:10;1.20;;;1.10;;
15876;SDS011;8037;51.666;7.834;2023-07-31T12:08:36;2.00;;;1.13;;
15876;SDS011;8037;51.666;7.834;2023-07-31T12:11:03;2.30;;;0.90;;
15876;SDS011;8037;51.666;7.834;2023-07-31T12:13:30;0.93;;;0.90;;
15876;SDS011;8037;51.666;7.834;2023-07-31T12:15:57;1.30;;;1.20;;
15876;SDS011;8037;51.666;7.834;2023-07-31T12:18:24;1.53;;;0.90;;
15876;SDS011;8037;51.666;7.834;2023-07-31T12:20:54;1.77;;;1.50;;
15876;SDS011;8037;51.666;7.834;2023-07-31T12:23:25;2.97;;;1.00;;
15876;SDS011;8037;51.666;7.834;2023-07-31T12:26:11;1.80;;;1.20;;
15876;SDS011;8037;51.666;7.834;2023-07-31T12:31:08;1.87;;;1.77;;
15876;SDS011;8037;51.666;7.834;2023-07-31T12:33:35;2.30;;;1.27;;
15876;SDS011;8037;51.666;7.834;2023-07-31T12:36:03;1.50;;;1.40;;
15876;SDS011;8037;51.666;7.834;2023-07-31T12:38:30;3.33;;;1.90;;
15876;SDS011;8037;51.666;7.834;2023-07-31T12:40:56;2.40;;;1.40;;
15876;SDS011;8037;51.666;7.834;2023-07-31T12:43:22;3.13;;;2.07;;
15876;SDS011;8037;51.666;7.834;2023-07-31T12:45:48;2.07;;;1.83;;
15876;SDS011;8037;51.666;7.834;2023-07-31T12:48:14;12.03;;;1.80;;
15876;SDS011;8037;51.666;7.834;2023-07-31T12:50:40;2.23;;;1.70;;
15876;SDS011;8037;51.666;7.834;2023-07-31T12:53:06;4.40;;;1.73;;
15876;SDS011;8037;51.666;7.834;2023-07-31T12:55:32;1.63;;;1.50;;
15876;SDS011;8037;51.666;7.834;2023-07-31T12:57:59;1.40;;;1.30;;
15876;SDS011;8037;51.666;7.834;2023-07-31T13:00:25;2.77;;;1.50;;
15876;SDS011;8037;51.666;7.834;2023-07-31T13:02:51;6.60;;;1.37;;
15876;SDS011;8037;51.666;7.834;2023-07-31T13:05:17;2.50;;;0.90;;
15876;SDS011;8037;51.666;7.834;2023-07-31T13:07:45;2.10;;;1.63;;
15876;SDS011;8037;51.666;7.834;2023-07-31T13:10:11;2.03;;;1.53;;
15876;SDS011;8037;51.666;7.834;2023-07-31T13:12:37;2.60;;;1.60;;
15876;SDS011;8037;51.666;7.834;2023-07-31T13:15:06;5.23;;;1.47;;
15876;SDS011;8037;51.666;7.834;2023-07-31T13:17:32;1.40;;;1.30;;
15876;SDS011;8037;51.666;7.834;2023-07-31T13:19:58;1.57;;;1.30;;
15876;SDS011;8037;51.666;7.834;2023-07-31T13:22:24;4.97;;;1.20;;
15876;SDS011;8037;51.666;7.834;2023-07-31T13:24:50;4.43;;;1.77;;
15876;SDS011;8037;51.666;7.834;2023-07-31T13:27:16;1.30;;;1.10;;
15876;SDS011;8037;51.666;7.834;2023-07-31T13:29:44;1.93;;;1.70;;
15876;SDS011;8037;51.666;7.834;2023-07-31T13:32:10;5.57;;;1.90;;
15876;SDS011;8037;51.666;7.834;2023-07-31T13:34:36;2.50;;;1.20;;
15876;SDS011;8037;51.666;7.834;2023-07-31T13:37:02;5.50;;;1.20;;
15876;SDS011;8037;51.666;7.834;2023-07-31T13:39:28;1.63;;;0.83;;
15876;SDS011;8037;51.666;7.834;2023-07-31T13:41:54;3.23;;;1.10;;
15876;SDS011;8037;51.666;7.834;2023-07-31T13:44:20;1.20;;;1.10;;
15876;SDS011;8037;51.666;7.834;2023-07-31T13:46:46;1.00;;;0.90;;
15876;SDS011;8037;51.666;7.834;2023-07-31T13:49:12;2.00;;;1.73;;
15876;SDS011;8037;51.666;7.834;2023-07-31T13:51:37;2.20;;;1.40;;
15876;SDS011;8037;51.666;7.834;2023-07-31T13:54:04;4.40;;;1.40;;
15876;SDS011;8037;51.666;7.834;2023-07-31T13:56:31;1.37;;;1.13;;
15876;SDS011;8037;51.666;7.834;2023-07-31T13:58:57;5.17;;;1.47;;
15876;SDS011;8037;51.666;7.834;2023-07-31T14:01:25;1.73;;;1.00;;
15876;SDS011;8037;51.666;7.834;2023-07-31T14:03:51;1.53;;;0.87;;
15876;SDS011;8037;51.666;7.834;2023-07-31T14:06:17;1.40;;;1.10;;
15876;SDS011;8037;51.666;7.834;2023-07-31T14:08:43;1.43;;;1.33;;
15876;SDS011;8037;51.666;7.834;2023-07-31T14:11:09;1.17;;;1.03;;
15876;SDS011;8037;51.666;7.834;2023-07-31T14:13:35;1.03;;;0.97;;
15876;SDS011;8037;51.666;7.834;2023-07-31T14:16:01;1.50;;;1.40;;
15876;SDS011;8037;51.666;7.834;2023-07-31T14:18:27;1.10;;;1.10;;
15876;SDS011;8037;51.666;7.834;2023-07-31T14:20:53;2.50;;;1.20;;
15876;SDS011;8037;51.666;7.834;2023-07-31T14:23:19;9.03;;;1.43;;
15876;SDS011;8037;51.666;7.834;2023-07-31T14:25:45;1.50;;;1.40;;
15876;SDS011;8037;51.666;7.834;2023-07-31T14:28:11;2.07;;;1.87;;
15876;SDS011;8037;51.666;7.834;2023-07-31T14:30:37;1.33;;;1.20;;
15876;SDS011;8037;51.666;7.834;2023-07-31T14:33:03;4.30;;;1.30;;
15876;SDS011;8037;51.666;7.834;2023-07-31T14:35:29;1.70;;;1.20;;
15876;SDS011;8037;51.666;7.834;2023-07-31T14:37:54;2.10;;;1.87;;
15876;SDS011;8037;51.666;7.834;2023-07-31T14:40:20;1.87;;;1.20;;
15876;SDS011;8037;51.666;7.834;2023-07-31T14:42:46;3.50;;;2.17;;
15876;SDS011;8037;51.666;7.834;2023-07-31T14:45:12;3.33;;;1.30;;
15876;SDS011;8037;51.666;7.834;2023-07-31T14:47:38;1.13;;;1.07;;
15876;SDS011;8037;51.666;7.834;2023-07-31T14:50:04;1.60;;;1.30;;
15876;SDS011;8037;51.666;7.834;2023-07-31T14:52:30;1.47;;;1.37;;
15876;SDS011;8037;51.666;7.834;2023-07-31T14:54:56;2.30;;;1.70;;
15876;SDS011;8037;51.666;7.834;2023-07-31T14:57:22;1.53;;;1.13;;
15876;SDS011;8037;51.666;7.834;2023-07-31T14:59:48;6.10;;;1.60;;
15876;SDS011;8037;51.666;7.834;2023-07-31T15:02:14;1.27;;;1.00;;
15876;SDS011;8037;51.666;7.834;2023-07-31T15:04:40;1.50;;;1.40;;
15876;SDS011;8037;51.666;7.834;2023-07-31T15:07:06;1.47;;;1.37;;
15876;SDS011;8037;51.666;7.834;2023-07-31T15:09:32;3.90;;;2.00;;
15876;SDS011;8037;51.666;7.834;2023-07-31T15:11:58;2.73;;;1.77;;
15876;SDS011;8037;51.666;7.834;2023-07-31T15:14:24;1.73;;;1.63;;